Time;durP1;ratioP1;P1;durP2;ratioP2;P2;SDS_P1;SDS_P2;PMS_P1;PMS_P2;Temp;Humidity;BMP_temperature;BMP_pressure;BME280_temperature;BME280_humidity;BME280_pressure;Samples;Min_cycle;Max_cycle;Signal;HPM_P1;HPM_P2
2023/09/01 00:01:38;;;;;;;13.40;9.90;;;;;;;16.76;100.00;100033.20;105243;1264;61502;-64
2023/09/01 00:04:27;;;;;;;15.60;9.70;;;;;;;16.71;100.00;100033.27;104960;1267;61260;-62
2023/09/01 00:06:54;;;;;;;13.30;9.70;;;;;;;16.66;100.00;100030.52;104986;1264;73922;-61
2023/09/01 00:09:21;;;;;;;14.70;9.30;;;;;;;16.61;100.00;100027.92;104971;1264;67217;-61
2023/09/01 00:11:48;;;;;;;14.60;9.60;;;;;;;16.56;100.00;100026.87;105222;1268;71139;-64
2023/09/01 00:14:15;;;;;;;14.20;10.20;;;;;;;16.54;100.00;100028.77;104881;1267;61341;-61
2023/09/01 00:16:42;;;;;;;18.90;12.20;;;;;;;16.55;100.00;100025.43;104944;1264;61264;-60
2023/09/01 00:19:09;;;;;;;17.80;13.00;;;;;;;16.61;100.00;100027.48;104828;1264;74543;-60
2023/09/01 00:21:36;;;;;;;22.30;14.80;;;;;;;16.68;100.00;100026.40;105211;1264;67320;-63
2023/09/01 00:24:03;;;;;;;23.80;16.70;;;;;;;16.74;100.00;100023.09;105031;1264;72722;-61
2023/09/01 00:26:31;;;;;;;24.10;15.60;;;;;;;16.78;100.00;100020.70;105075;1267;61367;-61
2023/09/01 00:28:58;;;;;;;23.40;15.60;;;;;;;16.80;100.00;100025.02;105031;1267;61204;-60
2023/09/01 00:31:25;;;;;;;28.30;17.20;;;;;;;16.82;100.00;100025.66;104911;1267;74708;-63
2023/09/01 00:33:52;;;;;;;27.60;18.00;;;;;;;16.82;100.00;100025.41;104789;1267;66663;-60
2023/09/01 00:36:19;;;;;;;29.80;19.40;;;;;;;16.83;100.00;100027.77;104935;1266;72732;-60
2023/09/01 00:38:46;;;;;;;30.50;19.20;;;;;;;16.84;100.00;100026.00;104913;1267;61313;-60
2023/09/01 00:41:13;;;;;;;33.50;20.00;;;;;;;16.85;100.00;100025.48;104893;1267;61125;-61
2023/09/01 00:43:40;;;;;;;32.90;20.80;;;;;;;16.84;100.00;100028.90;105337;1265;74684;-63
2023/09/01 00:46:07;;;;;;;32.10;21.20;;;;;;;16.83;100.00;100029.45;105076;1268;67261;-62
2023/09/01 00:48:34;;;;;;;36.30;21.50;;;;;;;16.83;100.00;100026.46;104970;1270;71723;-60
2023/09/01 00:51:01;;;;;;;41.30;23.10;;;;;;;16.83;100.00;100024.71;104870;1267;61251;-61
2023/09/01 00:53:29;;;;;;;38.90;23.10;;;;;;;16.83;100.00;100028.93;105017;1264;61250;-61
2023/09/01 00:55:58;;;;;;;44.10;23.50;;;;;;;16.82;100.00;100024.95;105256;1264;73415;-63
2023/09/01 00:58:25;;;;;;;36.50;23.40;;;;;;;16.80;100.00;100027.60;104650;1267;66671;-61
2023/09/01 01:00:52;;;;;;;34.50;22.20;;;;;;;16.81;100.00;100030.34;105003;1264;72724;-61
2023/09/01 01:03:21;;;;;;;35.30;23.30;;;;;;;16.80;100.00;100034.13;104949;1267;61309;-60
2023/09/01 01:06:09;;;;;;;33.50;22.90;;;;;;;16.79;100.00;100034.46;104973;1267;61152;-63
2023/09/01 01:08:51;;;;;;;34.80;22.30;;;;;;;16.73;100.00;100037.34;104893;1270;74900;-61
2023/09/01 01:11:28;;;;;;;36.70;23.00;;;;;;;16.69;100.00;100039.54;105344;1268;65685;-63
2023/09/01 01:13:58;;;;;;;42.50;25.20;;;;;;;16.63;100.00;100040.24;104843;1264;72571;-60
2023/09/01 01:16:26;;;;;;;38.60;23.60;;;;;;;16.58;100.00;100040.80;104942;1264;61437;-61
2023/09/01 01:18:53;;;;;;;36.40;23.70;;;;;;;16.54;100.00;100038.34;104988;1271;61257;-60
2023/09/01 01:21:27;;;;;;;43.30;27.30;;;;;;;16.50;100.00;100040.83;105208;1268;74792;-63
2023/09/01 01:23:55;;;;;;;36.60;23.60;;;;;;;16.47;100.00;100042.73;104907;1270;66345;-60
2023/09/01 01:26:23;;;;;;;34.00;22.10;;;;;;;16.44;100.00;100034.92;105060;1264;72698;-60
2023/09/01 01:28:50;;;;;;;32.10;21.10;;;;;;;16.41;100.00;100037.36;104869;1266;61350;-60
2023/09/01 01:31:18;;;;;;;37.60;22.70;;;;;;;16.40;100.00;100035.96;104793;1264;61272;-63
2023/09/01 01:33:51;;;;;;;32.50;22.50;;;;;;;16.38;100.00;100031.95;104889;1264;73459;-60
2023/09/01 01:36:22;;;;;;;40.90;22.40;;;;;;;16.35;100.00;100030.46;104848;1263;67131;-60
2023/09/01 01:38:55;;;;;;;45.30;23.20;;;;;;;16.35;100.00;100025.16;104863;1264;73674;-62
2023/09/01 01:41:27;;;;;;;35.70;24.30;;;;;;;16.36;100.00;100027.33;104996;1266;62069;-63
2023/09/01 01:43:54;;;;;;;34.70;22.00;;;;;;;16.36;100.00;100030.23;104668;1269;60972;-61
2023/09/01 01:46:21;;;;;;;36.80;24.50;;;;;;;16.37;100.00;100033.27;104931;1264;73141;-60
2023/09/01 01:48:48;;;;;;;33.80;21.30;;;;;;;16.37;100.00;100035.73;105018;1266;66399;-62
2023/09/01 01:51:15;;;;;;;32.10;20.60;;;;;;;16.35;100.00;100039.92;105048;1264;72499;-64
2023/09/01 01:53:42;;;;;;;39.00;22.70;;;;;;;16.32;100.00;100046.48;104602;1264;61165;-61
2023/09/01 01:56:11;;;;;;;36.70;23.20;;;;;;;16.31;100.00;100048.05;104777;1264;61240;-61
2023/09/01 01:58:41;;;;;;;40.00;23.90;;;;;;;16.32;100.00;100048.79;105220;1265;74725;-63
2023/09/01 02:01:08;;;;;;;34.40;21.80;;;;;;;16.34;100.00;100047.18;104848;1264;67399;-61
2023/09/01 02:03:35;;;;;;;34.70;23.30;;;;;;;16.36;100.00;100046.02;104972;1264;72332;-61
2023/09/01 02:06:03;;;;;;;34.80;22.70;;;;;;;16.34;100.00;100047.54;104811;1264;61247;-62
2023/09/01 02:08:30;;;;;;;37.90;23.60;;;;;;;16.31;100.00;100050.31;104950;1266;61132;-62
2023/09/01 02:10:57;;;;;;;35.10;23.50;;;;;;;16.26;100.00;100047.25;104860;1267;75160;-65
2023/09/01 02:13:25;;;;;;;33.70;22.00;;;;;;;16.23;100.00;100050.49;105157;1264;66023;-62
2023/09/01 02:15:53;;;;;;;33.50;21.40;;;;;;;16.21;100.00;100049.77;104980;1264;71750;-62
2023/09/01 02:18:20;;;;;;;30.50;21.00;;;;;;;16.18;100.00;100052.20;104921;1266;61247;-61
2023/09/01 02:20:47;;;;;;;29.70;20.30;;;;;;;16.12;100.00;100053.27;105212;1264;61258;-64
2023/09/01 02:23:15;;;;;;;31.20;20.50;;;;;;;16.06;100.00;100050.42;104740;1264;74424;-61
2023/09/01 02:25:43;;;;;;;34.80;22.10;;;;;;;16.01;100.00;100051.14;105131;1265;67053;-62
2023/09/01 02:28:10;;;;;;;32.20;20.70;;;;;;;15.97;100.00;100051.88;104682;1264;71451;-61
2023/09/01 02:30:38;;;;;;;31.50;21.10;;;;;;;15.95;100.00;100049.94;104824;1264;61374;-61
2023/09/01 02:33:05;;;;;;;31.30;18.80;;;;;;;15.94;100.00;100053.21;105065;1264;61267;-62
2023/09/01 02:35:33;;;;;;;31.30;20.50;;;;;;;15.92;100.00;100054.78;104861;1268;74695;-62
2023/09/01 02:38:00;;;;;;;34.20;21.50;;;;;;;15.90;100.00;100057.02;104948;1263;65998;-61
2023/09/01 02:40:27;;;;;;;30.00;20.30;;;;;;;15.88;100.00;100061.19;104811;1265;71546;-61
2023/09/01 02:42:54;;;;;;;44.00;23.40;;;;;;;15.85;100.00;100059.73;104760;1264;61300;-62
2023/09/01 02:45:21;;;;;;;35.60;24.00;;;;;;;15.82;100.00;100061.14;105043;1264;61350;-60
2023/09/01 02:47:48;;;;;;;42.60;27.00;;;;;;;15.80;100.00;100056.63;104993;1264;74690;-60
2023/09/01 02:50:15;;;;;;;45.80;26.70;;;;;;;15.79;100.00;100054.81;104970;1265;67168;-62
2023/09/01 02:52:42;;;;;;;46.40;28.90;;;;;;;15.79;100.00;100054.74;104880;1264;73277;-60
2023/09/01 02:55:10;;;;;;;50.40;31.90;;;;;;;15.78;100.00;100055.31;105055;1264;61154;-62
2023/09/01 02:57:37;;;;;;;49.40;32.30;;;;;;;15.80;100.00;100050.89;104861;1265;61253;-65
2023/09/01 03:00:21;;;;;;;49.00;32.10;;;;;;;15.81;100.00;100053.30;105094;1264;72749;-62
2023/09/01 03:02:50;;;;;;;49.60;32.30;;;;;;;15.83;100.00;100056.44;105073;1268;65735;-64
2023/09/01 03:05:17;;;;;;;61.10;37.80;;;;;;;15.84;100.00;100061.00;104853;1267;72114;-61
2023/09/01 03:07:44;;;;;;;56.10;35.90;;;;;;;15.87;100.00;100061.33;105102;1268;61136;-64
2023/09/01 03:10:11;;;;;;;61.70;38.20;;;;;;;15.91;100.00;100066.89;104833;1264;61178;-62
2023/09/01 03:12:39;;;;;;;56.70;34.80;;;;;;;15.95;100.00;100063.52;105034;1265;74850;-62
2023/09/01 03:15:07;;;;;;;58.20;35.60;;;;;;;15.99;100.00;100063.42;104586;1266;66286;-63
2023/09/01 03:17:35;;;;;;;53.60;29.70;;;;;;;16.04;100.00;100061.94;104845;1265;72832;-61
2023/09/01 03:20:04;;;;;;;65.90;32.00;;;;;;;16.11;100.00;100060.23;104867;1267;61348;-62
2023/09/01 03:22:31;;;;;;;59.60;32.60;;;;;;;16.19;100.00;100063.83;104810;1266;61323;-60
2023/09/01 03:24:59;;;;;;;52.30;31.10;;;;;;;16.28;100.00;100062.81;104985;1265;74692;-62
2023/09/01 03:27:27;;;;;;;48.60;32.20;;;;;;;16.43;100.00;100060.70;104871;1267;65967;-61
2023/09/01 03:29:54;;;;;;;58.10;35.50;;;;;;;16.64;100.00;100063.96;105090;1266;71476;-63
2023/09/01 03:32:22;;;;;;;55.40;32.90;;;;;;;16.86;100.00;100059.36;104923;1265;61294;-61
2023/09/01 03:34:50;;;;;;;58.30;33.60;;;;;;;17.01;100.00;100058.24;104742;1265;61443;-62
2023/09/01 03:37:17;;;;;;;49.90;32.10;;;;;;;17.09;100.00;100058.04;104804;1268;75496;-61
2023/09/01 03:39:44;;;;;;;50.20;33.20;;;;;;;17.15;100.00;100065.54;104981;1265;65330;-59
2023/09/01 03:42:11;;;;;;;50.90;33.40;;;;;;;17.29;100.00;100064.06;104946;1268;72475;-62
2023/09/01 03:44:38;;;;;;;41.40;30.60;;;;;;;17.59;100.00;100064.77;104796;1264;61092;-62
2023/09/01 03:47:06;;;;;;;47.40;31.90;;;;;;;18.04;100.00;100063.21;104562;1270;61308;-60
2023/09/01 03:49:36;;;;;;;50.30;31.80;;;;;;;18.59;100.00;100064.13;104790;1264;73471;-59
2023/09/01 03:52:03;;;;;;;49.60;31.40;;;;;;;19.18;100.00;100063.89;105123;1271;66969;-61
2023/09/01 03:54:30;;;;;;;42.50;29.70;;;;;;;19.76;100.00;100063.56;104879;1268;70449;-60
2023/09/01 03:56:57;;;;;;;44.00;30.30;;;;;;;20.31;100.00;100064.73;104642;1265;61243;-61
2023/09/01 03:59:24;;;;;;;41.80;28.00;;;;;;;20.82;100.00;100064.66;104948;1264;61261;-61
2023/09/01 04:01:51;;;;;;;44.50;28.50;;;;;;;21.36;96.88;100062.95;104936;1264;74602;-60
2023/09/01 04:04:19;;;;;;;47.70;28.00;;;;;;;21.95;89.35;100063.95;105096;1266;67680;-63
2023/09/01 04:06:46;;;;;;;47.20;28.10;;;;;;;22.49;79.81;100059.70;105262;1267;71438;-63
2023/09/01 04:09:13;;;;;;;42.50;26.20;;;;;;;22.94;73.45;100059.71;104627;1268;61372;-60
2023/09/01 04:11:40;;;;;;;39.70;27.30;;;;;;;23.27;66.95;100056.29;104834;1264;61264;-60
2023/09/01 04:14:09;;;;;;;36.60;26.70;;;;;;;23.54;64.08;100055.05;105059;1268;74638;-61
2023/09/01 04:16:35;;;;;;;35.40;24.40;;;;;;;23.79;60.16;100055.26;104788;1264;67371;-60
2023/09/01 04:19:03;;;;;;;34.00;26.70;;;;;;;23.86;57.94;100054.36;104831;1268;71550;-60
2023/09/01 04:21:30;;;;;;;38.50;25.70;;;;;;;23.81;56.92;100056.73;104992;1268;61294;-60
2023/09/01 04:23:58;;;;;;;34.80;25.40;;;;;;;23.74;57.20;100056.77;104837;1265;61250;-60
2023/09/01 04:26:25;;;;;;;36.50;25.50;;;;;;;23.70;58.73;100060.05;104911;1264;73417;-60
2023/09/01 04:28:52;;;;;;;37.90;25.50;;;;;;;23.65;59.16;100056.42;105144;1266;67074;-62
2023/09/01 04:31:24;;;;;;;38.20;26.70;;;;;;;23.68;60.28;100055.80;104987;1265;70633;-60
2023/09/01 04:33:51;;;;;;;;;;;;;;;23.76;58.46;100064.95;104869;1266;61350;-61
2023/09/01 04:36:18;;;;;;;38.80;25.80;;;;;;;23.89;56.45;100064.94;104978;1268;61257;-63
2023/09/01 04:38:48;;;;;;;34.30;24.40;;;;;;;24.06;56.20;100066.79;104870;1269;74649;-61
2023/09/01 04:41:15;;;;;;;36.00;25.20;;;;;;;24.32;54.69;100062.35;104835;1268;67765;-61
2023/09/01 04:43:42;;;;;;;40.30;25.60;;;;;;;24.61;52.59;100058.17;104971;1266;71685;-61
2023/09/01 04:46:09;;;;;;;34.70;26.20;;;;;;;24.79;51.97;100058.06;105061;1266;61248;-63
2023/09/01 04:48:37;;;;;;;30.90;23.90;;;;;;;25.00;51.81;100057.73;104800;1268;61264;-60
2023/09/01 04:51:04;;;;;;;35.70;24.50;;;;;;;25.31;50.45;100061.66;105287;1268;74834;-63
2023/09/01 04:53:32;;;;;;;40.20;25.80;;;;;;;25.59;49.26;100062.27;104787;1266;66483;-60
2023/09/01 04:55:58;;;;;;;32.50;23.70;;;;;;;25.95;48.28;100062.02;104847;1264;72744;-63
2023/09/01 04:58:25;;;;;;;36.80;26.00;;;;;;;26.36;47.02;100059.66;104859;1265;61248;-60
2023/09/01 05:00:53;;;;;;;37.40;24.90;;;;;;;26.80;45.01;100060.20;104917;1266;61190;-62
2023/09/01 05:03:21;;;;;;;36.60;25.80;;;;;;;27.30;43.40;100056.52;104898;1266;74595;-63
2023/09/01 05:05:49;;;;;;;31.20;24.70;;;;;;;27.84;42.24;100052.64;104856;1264;66133;-60
2023/09/01 05:08:17;;;;;;;33.10;25.40;;;;;;;28.30;40.06;100051.02;104688;1266;72610;-62
2023/09/01 05:10:44;;;;;;;34.90;24.60;;;;;;;28.59;39.09;100053.20;104802;1266;61766;-61
2023/09/01 05:13:11;;;;;;;36.20;23.40;;;;;;;28.88;37.75;100050.23;104598;1265;61302;-63
2023/09/01 05:15:38;;;;;;;40.70;24.40;;;;;;;29.08;37.54;100049.48;104769;1267;74738;-62
2023/09/01 05:18:05;;;;;;;32.60;24.20;;;;;;;29.32;37.58;100045.20;104832;1265;67884;-60
2023/09/01 05:20:32;;;;;;;33.40;24.20;;;;;;;29.58;36.41;100045.42;104865;1269;71271;-62
2023/09/01 05:23:00;;;;;;;29.50;22.80;;;;;;;29.62;35.49;100040.33;104888;1266;61261;-60
2023/09/01 05:25:27;;;;;;;28.20;22.70;;;;;;;29.57;35.18;100037.11;104935;1268;59854;-61
2023/09/01 05:27:55;;;;;;;30.10;23.50;;;;;;;29.55;35.21;100031.48;105041;1266;74446;-62
2023/09/01 05:30:22;;;;;;;32.10;21.10;;;;;;;29.55;35.80;100025.13;104912;1266;67655;-60
2023/09/01 05:32:49;;;;;;;32.80;22.30;;;;;;;29.52;35.31;100018.10;104933;1264;72575;-60
2023/09/01 05:35:16;;;;;;;34.50;23.20;;;;;;;29.02;34.91;100020.98;105093;1267;61346;-63
2023/09/01 05:37:44;;;;;;;33.10;23.60;;;;;;;28.38;35.76;100021.66;104753;1268;61185;-60
2023/09/01 05:40:12;;;;;;;30.60;23.70;;;;;;;27.87;36.69;100021.55;104998;1268;74995;-61
2023/09/01 05:42:39;;;;;;;32.10;24.00;;;;;;;27.55;38.23;100021.63;105006;1264;66184;-61
2023/09/01 05:45:07;;;;;;;28.30;20.50;;;;;;;27.46;39.65;100022.36;104902;1265;72703;-60
2023/09/01 05:47:34;;;;;;;28.40;19.60;;;;;;;27.53;39.95;100021.84;105038;1266;61289;-62
2023/09/01 05:50:03;;;;;;;29.70;21.10;;;;;;;27.63;38.48;100019.34;105088;1264;61245;-61
2023/09/01 05:52:31;;;;;;;31.70;20.10;;;;;;;27.64;38.60;100011.71;104962;1268;74820;-60
2023/09/01 05:54:58;;;;;;;26.50;19.60;;;;;;;27.77;39.53;100008.59;104948;1265;66022;-62
2023/09/01 05:57:25;;;;;;;29.20;21.20;;;;;;;28.22;38.98;100012.31;104881;1265;71607;-64
2023/09/01 05:59:52;;;;;;;28.10;20.90;;;;;;;28.52;37.64;100015.46;104921;1268;61615;-61
2023/09/01 06:02:19;;;;;;;29.40;20.20;;;;;;;28.55;37.88;100020.17;104956;1268;61076;-62
2023/09/01 06:04:46;;;;;;;25.00;18.70;;;;;;;28.55;37.79;100021.02;104882;1263;73747;-60
2023/09/01 06:07:13;;;;;;;28.70;19.50;;;;;;;28.61;37.63;100023.77;104923;1266;67110;-61
2023/09/01 06:09:40;;;;;;;32.00;21.40;;;;;;;28.73;37.25;100024.13;104750;1268;73176;-64
2023/09/01 06:12:07;;;;;;;28.80;21.40;;;;;;;28.82;37.31;100027.80;104826;1268;61226;-62
2023/09/01 06:14:34;;;;;;;29.10;22.10;;;;;;;28.88;37.83;100021.46;105023;1266;60526;-63
2023/09/01 06:17:01;;;;;;;28.30;21.80;;;;;;;29.01;38.81;100023.07;104821;1268;72316;-61
2023/09/01 06:19:28;;;;;;;31.80;22.20;;;;;;;29.23;38.07;100019.68;104731;1268;65009;-62
2023/09/01 06:21:55;;;;;;;28.10;22.30;;;;;;;29.50;37.70;100019.51;105054;1266;72782;-65
2023/09/01 06:24:22;;;;;;;28.90;23.20;;;;;;;29.89;37.68;100017.44;104831;1268;61279;-64
2023/09/01 06:26:49;;;;;;;34.50;24.10;;;;;;;30.39;36.48;100014.16;105045;1268;61471;-61
2023/09/01 06:29:16;;;;;;;31.70;22.20;;;;;;;30.86;35.79;100010.93;104910;1265;74651;-61
2023/09/01 06:31:43;;;;;;;36.00;22.80;;;;;;;31.34;34.76;100005.25;104919;1264;67400;-61
2023/09/01 06:34:10;;;;;;;29.50;21.70;;;;;;;31.74;33.90;99999.63;104915;1265;72517;-61
2023/09/01 06:36:37;;;;;;;34.60;23.10;;;;;;;32.09;33.53;99999.63;104914;1268;61346;-61
2023/09/01 06:39:04;;;;;;;28.60;21.30;;;;;;;32.31;33.04;99994.50;104583;1266;61234;-61
2023/09/01 06:41:31;;;;;;;27.40;20.70;;;;;;;32.50;33.11;99989.83;105066;1268;74604;-62
2023/09/01 06:44:00;;;;;;;31.80;22.60;;;;;;;32.71;32.22;99986.92;105152;1267;65887;-64
2023/09/01 06:46:27;;;;;;;28.90;21.50;;;;;;;32.87;32.26;99987.88;104787;1268;71211;-62
2023/09/01 06:48:54;;;;;;;31.40;21.40;;;;;;;33.05;31.67;99986.15;104825;1270;61244;-62
2023/09/01 06:51:21;;;;;;;29.00;21.10;;;;;;;33.24;31.47;99987.86;104846;1266;61268;-61
2023/09/01 06:53:48;;;;;;;32.70;21.80;;;;;;;33.39;31.40;99988.30;104970;1265;73245;-64
2023/09/01 06:56:15;;;;;;;30.20;22.00;;;;;;;33.54;31.32;99990.44;104735;1269;65846;-61
2023/09/01 06:58:42;;;;;;;29.00;21.90;;;;;;;33.86;31.07;99987.11;104887;1268;72488;-62
2023/09/01 07:01:11;;;;;;;26.30;21.00;;;;;;;34.21;30.49;99986.79;104872;1268;61306;-62
2023/09/01 07:03:38;;;;;;;30.70;22.60;;;;;;;34.49;30.31;99986.96;104985;1264;61171;-61
2023/09/01 07:06:05;;;;;;;34.50;21.80;;;;;;;34.67;29.66;99981.27;104792;1268;74520;-62
2023/09/01 07:08:32;;;;;;;39.40;23.10;;;;;;;34.70;29.94;99978.95;105231;1267;66949;-62
2023/09/01 07:11:03;;;;;;;29.70;21.30;;;;;;;34.87;29.96;99980.80;104726;1266;71456;-61
2023/09/01 07:13:30;;;;;;;31.40;21.30;;;;;;;35.04;29.69;99984.20;104828;1268;61228;-61
2023/09/01 07:15:58;;;;;;;30.60;23.30;;;;;;;35.34;30.01;99975.77;105234;1265;61439;-64
2023/09/01 07:18:25;;;;;;;28.30;21.50;;;;;;;35.75;29.41;99971.32;105030;1265;66716;-61
2023/09/01 07:20:57;;;;;;;30.60;23.20;;;;;;;35.98;28.95;99965.94;105089;1265;61169;-61
2023/09/01 07:23:24;;;;;;;30.90;21.10;;;;;;;35.96;28.20;99966.51;104955;1268;62581;-61
2023/09/01 07:25:52;;;;;;;33.70;22.60;;;;;;;35.69;28.62;99964.00;104757;1268;61357;-60
2023/09/01 07:28:19;;;;;;;30.20;22.70;;;;;;;35.68;28.70;99958.48;104905;1267;59671;-62
2023/09/01 07:30:46;;;;;;;29.10;22.40;;;;;;;35.76;28.72;99957.33;104995;1268;73686;-62
2023/09/01 07:33:13;;;;;;;26.80;20.20;;;;;;;35.80;28.88;99958.23;104921;1266;61676;-61
2023/09/01 07:35:50;;;;;;;26.40;21.00;;;;;;;36.08;28.71;99966.64;104867;1268;72797;-60
2023/09/01 07:38:17;;;;;;;26.50;20.60;;;;;;;36.53;28.36;99973.97;104795;1265;61132;-63
2023/09/01 07:40:44;;;;;;;27.00;20.60;;;;;;;37.04;27.78;99974.92;104887;1268;61247;-60
2023/09/01 07:43:11;;;;;;;30.00;20.50;;;;;;;37.18;27.25;99969.77;104878;1268;65879;-60
2023/09/01 07:45:39;;;;;;;28.30;19.30;;;;;;;37.11;27.63;99965.86;104873;1268;61108;-63
2023/09/01 07:48:06;;;;;;;24.30;17.60;;;;;;;37.09;27.48;99968.71;104624;1268;71490;-61
2023/09/01 07:50:48;;;;;;;24.60;17.80;;;;;;;37.05;27.46;99970.36;104703;1268;61201;-61
2023/09/01 07:53:16;;;;;;;27.60;17.60;;;;;;;37.36;27.77;99970.38;104917;1266;59777;-61
2023/09/01 07:55:43;;;;;;;19.40;15.10;;;;;;;37.83;27.12;99967.39;105337;1266;65024;-62
2023/09/01 07:58:10;;;;;;;21.70;14.40;;;;;;;38.20;26.12;99964.99;105063;1265;61247;-61
2023/09/01 08:00:37;;;;;;;26.30;14.20;;;;;;;38.35;25.42;99962.56;104943;1266;62775;-61
2023/09/01 08:03:10;;;;;;;19.20;11.50;;;;;;;38.33;25.43;99960.13;104940;1266;61225;-61
2023/09/01 08:05:37;;;;;;;15.40;10.10;;;;;;;38.41;25.39;99962.45;105136;1266;61363;-63
2023/09/01 08:08:05;;;;;;;12.70;5.90;;;;;;;38.44;24.22;99963.18;104788;1266;64729;-60
2023/09/01 08:10:32;;;;;;;12.60;5.80;;;;;;;38.33;23.60;99962.00;104937;1267;61378;-61
2023/09/01 08:13:00;;;;;;;8.90;5.20;;;;;;;38.22;23.32;99958.17;104997;1266;63956;-63
2023/09/01 08:15:27;;;;;;;7.90;4.60;;;;;;;38.16;23.32;99955.40;104876;1264;61280;-60
2023/09/01 08:17:54;;;;;;;9.40;5.00;;;;;;;38.17;23.30;99955.64;105043;1265;61261;-64
2023/09/01 08:20:22;;;;;;;10.10;5.20;;;;;;;38.32;23.22;99956.31;105063;1268;66122;-61
2023/09/01 08:22:49;;;;;;;8.00;5.20;;;;;;;38.40;23.29;99960.50;105000;1268;66676;-61
2023/09/01 08:25:16;;;;;;;16.20;5.40;;;;;;;38.19;23.16;99960.33;104947;1268;71478;-61
2023/09/01 08:27:44;;;;;;;11.90;5.40;;;;;;;37.61;23.24;99960.00;105252;1266;61211;-64
2023/09/01 08:30:13;;;;;;;105.40;87.10;;;;;;;37.10;24.11;99961.17;104983;1268;61157;-59
2023/09/01 08:32:41;;;;;;;66.90;54.80;;;;;;;36.78;24.04;99966.48;104944;1269;66286;-60
2023/09/01 08:35:09;;;;;;;24.50;15.80;;;;;;;36.67;23.96;99971.70;104990;1268;61269;-59
2023/09/01 08:37:36;;;;;;;25.40;17.70;;;;;;;36.70;24.03;99971.13;105142;1268;64037;-62
2023/09/01 08:40:05;;;;;;;15.60;10.90;;;;;;;36.83;23.94;99971.99;105049;1266;61357;-61
2023/09/01 08:42:33;;;;;;;12.80;6.90;;;;;;;36.95;23.93;99965.95;104938;1268;61263;-62
2023/09/01 08:44:59;;;;;;;11.30;7.60;;;;;;;37.20;23.44;99967.98;104921;1266;65631;-61
2023/09/01 08:47:26;;;;;;;10.30;6.60;;;;;;;37.46;22.96;99965.13;105307;1269;61217;-62
2023/09/01 08:49:54;;;;;;;16.60;11.70;;;;;;;37.66;22.82;99963.25;104943;1265;62722;-61
2023/09/01 08:52:20;;;;;;;13.00;7.40;;;;;;;37.83;22.56;99962.40;104845;1278;61148;-61
2023/09/01 08:54:48;;;;;;;11.50;9.10;;;;;;;37.90;22.57;99961.88;104824;1269;61293;-61
2023/09/01 08:57:15;;;;;;;11.00;5.30;;;;;;;37.85;22.24;99961.10;105048;1264;66204;-61
2023/09/01 08:59:42;;;;;;;11.50;5.20;;;;;;;37.63;22.63;99963.21;104743;1268;60003;-63
2023/09/01 09:02:09;;;;;;;10.80;5.80;;;;;;;37.28;22.74;99963.05;104905;1268;62949;-61
2023/09/01 09:04:37;;;;;;;7.80;5.20;;;;;;;36.93;23.30;99959.41;104902;1265;61319;-61
2023/09/01 09:07:18;;;;;;;9.80;5.60;;;;;;;36.75;24.08;99961.19;105002;1264;61264;-60
2023/09/01 09:10:04;;;;;;;11.40;5.70;;;;;;;36.76;24.17;99957.70;104897;1267;65470;-61
2023/09/01 09:12:36;;;;;;;11.20;5.10;;;;;;;36.86;24.41;99955.12;104898;1268;61320;-60
2023/09/01 09:15:04;;;;;;;9.60;5.20;;;;;;;36.92;24.29;99958.08;104991;1267;63565;-64
2023/09/01 09:17:44;;;;;;;6.00;4.60;;;;;;;37.00;24.38;99961.92;104863;1268;221084;-61
2023/09/01 09:20:12;;;;;;;6.40;4.40;;;;;;;37.22;24.50;99964.67;104908;1268;61295;-61
2023/09/01 09:22:56;;;;;;;8.70;4.60;;;;;;;37.47;24.23;99963.50;105077;1265;64959;-61
2023/09/01 09:25:29;;;;;;;6.50;3.80;;;;;;;37.67;23.81;99964.90;104842;1267;61218;-61
2023/09/01 09:27:59;;;;;;;9.00;4.20;;;;;;;37.73;23.64;99961.45;104837;1265;62910;-61
2023/09/01 09:30:26;;;;;;;8.10;4.20;;;;;;;37.93;23.73;99962.27;105425;1268;61272;-61
2023/09/01 09:33:06;;;;;;;9.40;4.20;;;;;;;38.06;22.77;99956.10;105181;1265;61129;-64
2023/09/01 09:35:34;;;;;;;10.30;4.20;;;;;;;37.74;22.91;99957.03;104969;1265;66095;-60
2023/09/01 09:38:03;;;;;;;7.00;4.00;;;;;;;37.53;23.24;99956.05;105106;1266;61164;-61
2023/09/01 09:40:30;;;;;;;7.60;4.60;;;;;;;37.55;23.06;99950.55;105269;1268;63891;-64
2023/09/01 09:42:59;;;;;;;8.40;5.60;;;;;;;37.57;23.09;99954.39;105028;1268;61290;-61
2023/09/01 09:45:32;;;;;;;13.60;9.30;;;;;;;37.73;22.69;99958.73;104989;1266;61590;-61
2023/09/01 09:48:06;;;;;;;8.70;6.00;;;;;;;37.96;21.82;99959.89;104875;1268;66059;-61
2023/09/01 09:50:34;;;;;;;24.30;20.40;;;;;;;38.17;21.32;99957.60;105173;1267;61423;-64
2023/09/01 09:53:02;;;;;;;12.00;6.10;;;;;;;38.32;21.43;99959.81;105038;1265;64973;-61
2023/09/01 09:55:31;;;;;;;13.90;6.90;;;;;;;38.56;20.77;99957.81;105119;1267;61229;-61
2023/09/01 09:58:07;;;;;;;16.20;5.20;;;;;;;38.55;20.63;99958.04;104800;1267;61255;-60
2023/09/01 10:00:53;;;;;;;7.40;4.50;;;;;;;38.54;20.46;99960.13;105124;1268;66543;-63
2023/09/01 10:03:25;;;;;;;8.20;5.70;;;;;;;38.58;20.05;99956.81;104800;1263;61318;-61
2023/09/01 10:05:54;;;;;;;12.70;6.00;;;;;;;38.42;20.38;99957.48;104925;1271;64163;-61
2023/09/01 10:08:21;;;;;;;9.50;4.70;;;;;;;38.32;20.53;99953.90;105090;1275;60234;-63
2023/09/01 10:10:49;;;;;;;8.20;5.10;;;;;;;38.21;20.68;99949.45;104982;1267;61108;-61
2023/09/01 10:13:16;;;;;;;13.80;6.60;;;;;;;38.14;20.79;99945.83;104916;1265;65010;-60
2023/09/01 10:15:43;;;;;;;9.10;6.10;;;;;;;38.07;20.58;99942.88;104883;1264;61261;-61
2023/09/01 10:18:10;;;;;;;9.10;5.30;;;;;;;38.10;20.97;99941.60;105018;1269;62893;-61
2023/09/01 10:20:42;;;;;;;11.90;5.90;;;;;;;38.28;20.60;99939.16;105071;1269;61114;-64
2023/09/01 10:23:10;;;;;;;9.30;5.90;;;;;;;38.40;20.36;99933.20;105070;1268;61171;-62
2023/09/01 10:25:37;;;;;;;9.40;4.70;;;;;;;38.53;20.34;99926.83;104995;1265;64865;-62
2023/09/01 10:28:10;;;;;;;9.70;7.80;;;;;;;38.59;20.20;99927.32;104686;1264;61263;-60
2023/09/01 10:30:44;;;;;;;10.70;5.50;;;;;;;38.44;19.93;99930.19;104970;1268;64446;-63
2023/09/01 10:33:31;;;;;;;12.70;8.00;;;;;;;38.06;20.30;99932.23;105026;1266;61257;-60
2023/09/01 10:35:59;;;;;;;20.60;7.70;;;;;;;37.67;20.66;99932.71;105144;1266;60003;-62
2023/09/01 10:38:32;;;;;;;9.10;6.70;;;;;;;37.36;21.16;99929.43;104667;1268;64907;-61
2023/09/01 10:40:59;;;;;;;9.50;7.20;;;;;;;37.10;21.59;99930.30;104951;1269;61280;-60
2023/09/01 10:43:37;;;;;;;13.40;6.90;;;;;;;36.81;21.81;99928.91;104966;1269;62878;-60
2023/09/01 10:46:16;;;;;;;8.40;5.60;;;;;;;36.43;22.12;99933.40;105069;1264;61240;-62
2023/09/01 10:48:59;;;;;;;12.40;8.00;;;;;;;35.99;22.69;99933.85;104808;1269;61158;-60
2023/09/01 10:51:28;;;;;;;10.20;7.70;;;;;;;35.56;23.35;99933.63;105151;1269;66117;-63
2023/09/01 10:54:01;;;;;;;17.00;9.60;;;;;;;35.27;23.96;99930.88;105015;1269;61163;-61
2023/09/01 10:56:28;;;;;;;16.10;11.70;;;;;;;35.07;24.26;99932.04;104893;1270;62904;-60
2023/09/01 10:58:56;;;;;;;23.30;16.30;;;;;;;34.91;24.94;99931.04;104849;1264;62154;-60
2023/09/01 11:01:37;;;;;;;22.30;16.60;;;;;;;34.81;25.35;99926.52;104802;1265;61152;-63
2023/09/01 11:04:13;;;;;;;17.80;12.00;;;;;;;34.75;25.39;99927.20;104947;1265;74628;-60
2023/09/01 11:06:59;;;;;;;15.30;12.70;;;;;;;34.67;25.75;99927.45;104791;1264;67333;-60
2023/09/01 11:09:35;;;;;;;14.00;10.70;;;;;;;34.68;26.32;99929.86;104793;1268;72693;-60
2023/09/01 11:12:06;;;;;;;11.60;8.80;;;;;;;34.74;26.17;99931.23;104985;1267;61440;-60